sensor_id;sensor_type;location;lat;lon;timestamp;temperature;humidity
22235;DHT22;11286;45.596;5.284;2023-03-29T00:00:58;13.40;99.90
22235;DHT22;11286;45.596;5.284;2023-03-29T00:03:25;13.40;99.90
22235;DHT22;11286;45.596;5.284;2023-03-29T00:05:51;13.40;99.90
22235;DHT22;11286;45.596;5.284;2023-03-29T00:08:22;13.30;99.90
22235;DHT22;11286;45.596;5.284;2023-03-29T00:10:48;13.30;99.90
22235;DHT22;11286;45.596;5.284;2023-03-29T00:13:14;13.20;99.90
22235;DHT22;11286;45.596;5.284;2023-03-29T00:15:40;13.10;99.90
22235;DHT22;11286;45.596;5.284;2023-03-29T00:18:06;13.10;99.90
22235;DHT22;11286;45.596;5.284;2023-03-29T00:20:32;13.10;99.90
22235;DHT22;11286;45.596;5.284;2023-03-29T00:22:57;13.10;99.90
22235;DHT22;11286;45.596;5.284;2023-03-29T00:25:23;13.20;99.90
22235;DHT22;11286;45.596;5.284;2023-03-29T00:27:49;13.20;99.90
22235;DHT22;11286;45.596;5.284;2023-03-29T00:30:15;13.20;99.90
22235;DHT22;11286;45.596;5.284;2023-03-29T00:32:41;13.20;99.90
22235;DHT22;11286;45.596;5.284;2023-03-29T00:35:07;13.20;99.90
22235;DHT22;11286;45.596;5.284;2023-03-29T00:37:33;13.20;99.90
22235;DHT22;11286;45.596;5.284;2023-03-29T00:39:59;13.20;99.90
22235;DHT22;11286;45.596;5.284;2023-03-29T00:42:25;13.20;99.90
22235;DHT22;11286;45.596;5.284;2023-03-29T00:47:37;13.10;99.90
22235;DHT22;11286;45.596;5.284;2023-03-29T00:52:38;13.10;99.90
22235;DHT22;11286;45.596;5.284;2023-03-29T00:55:11;13.20;99.90
22235;DHT22;11286;45.596;5.284;2023-03-29T00:57:40;13.20;99.90
22235;DHT22;11286;45.596;5.284;2023-03-29T01:00:08;13.20;99.90
22235;DHT22;11286;45.596;5.284;2023-03-29T01:02:35;13.20;99.90
22235;DHT22;11286;45.596;5.284;2023-03-29T01:05:08;13.10;99.90
22235;DHT22;11286;45.596;5.284;2023-03-29T01:07:40;13.00;99.90
22235;DHT22;11286;45.596;5.284;2023-03-29T01:13:18;13.00;99.90
22235;DHT22;11286;45.596;5.284;2023-03-29T01:15:46;12.90;99.90
22235;DHT22;11286;45.596;5.284;2023-03-29T01:18:12;12.80;99.90
22235;DHT22;11286;45.596;5.284;2023-03-29T01:21:01;12.70;99.90
22235;DHT22;11286;45.596;5.284;2023-03-29T01:28:48;12.50;99.90
22235;DHT22;11286;45.596;5.284;2023-03-29T01:31:22;12.50;99.90
22235;DHT22;11286;45.596;5.284;2023-03-29T01:33:54;12.50;99.90
22235;DHT22;11286;45.596;5.284;2023-03-29T01:36:44;12.50;99.90
22235;DHT22;11286;45.596;5.284;2023-03-29T01:39:14;12.50;99.90
22235;DHT22;11286;45.596;5.284;2023-03-29T01:41:59;12.50;99.90
22235;DHT22;11286;45.596;5.284;2023-03-29T01:50:17;12.20;99.90
22235;DHT22;11286;45.596;5.284;2023-03-29T01:52:57;12.10;99.90
22235;DHT22;11286;45.596;5.284;2023-03-29T01:55:33;12.10;99.90
22235;DHT22;11286;45.596;5.284;2023-03-29T01:58:02;12.10;99.90
22235;DHT22;11286;45.596;5.284;2023-03-29T02:00:30;12.10;99.90
22235;DHT22;11286;45.596;5.284;2023-03-29T02:03:03;12.10;99.90
22235;DHT22;11286;45.596;5.284;2023-03-29T02:05:30;12.10;99.90
22235;DHT22;11286;45.596;5.284;2023-03-29T02:07:59;12.20;99.90
22235;DHT22;11286;45.596;5.284;2023-03-29T02:10:26;12.20;99.90
22235;DHT22;11286;45.596;5.284;2023-03-29T02:12:52;12.30;99.90
22235;DHT22;11286;45.596;5.284;2023-03-29T02:15:19;12.20;99.90
22235;DHT22;11286;45.596;5.284;2023-03-29T02:17:45;12.10;99.90
22235;DHT22;11286;45.596;5.284;2023-03-29T02:20:27;12.20;99.90
22235;DHT22;11286;45.596;5.284;2023-03-29T02:23:04;12.20;99.90
22235;DHT22;11286;45.596;5.284;2023-03-29T02:25:33;12.20;99.90
22235;DHT22;11286;45.596;5.284;2023-03-29T02:27:59;12.20;99.90
22235;DHT22;11286;45.596;5.284;2023-03-29T02:30:37;12.20;99.90
22235;DHT22;11286;45.596;5.284;2023-03-29T02:33:13;12.20;99.90
22235;DHT22;11286;45.596;5.284;2023-03-29T02:35:48;12.20;99.90
22235;DHT22;11286;45.596;5.284;2023-03-29T02:38:17;12.10;99.90
22235;DHT22;11286;45.596;5.284;2023-03-29T02:40:44;12.10;99.90
22235;DHT22;11286;45.596;5.284;2023-03-29T02:43:12;12.20;99.90
22235;DHT22;11286;45.596;5.284;2023-03-29T02:45:39;12.20;99.90
22235;DHT22;11286;45.596;5.284;2023-03-29T02:48:08;12.30;99.90
22235;DHT22;11286;45.596;5.284;2023-03-29T02:50:37;12.20;99.90
22235;DHT22;11286;45.596;5.284;2023-03-29T02:53:08;12.30;99.90
22235;DHT22;11286;45.596;5.284;2023-03-29T02:55:37;12.30;99.90
22235;DHT22;11286;45.596;5.284;2023-03-29T02:58:03;12.30;99.90
22235;DHT22;11286;45.596;5.284;2023-03-29T03:00:36;12.30;99.90
22235;DHT22;11286;45.596;5.284;2023-03-29T03:03:05;12.30;99.90
22235;DHT22;11286;45.596;5.284;2023-03-29T03:05:32;12.40;99.90
22235;DHT22;11286;45.596;5.284;2023-03-29T03:07:58;12.50;99.90
22235;DHT22;11286;45.596;5.284;2023-03-29T03:10:24;12.40;99.90
22235;DHT22;11286;45.596;5.284;2023-03-29T03:12:49;12.50;99.90
22235;DHT22;11286;45.596;5.284;2023-03-29T03:15:15;12.30;99.90
22235;DHT22;11286;45.596;5.284;2023-03-29T03:17:41;12.40;99.90
22235;DHT22;11286;45.596;5.284;2023-03-29T03:20:08;12.40;99.90
22235;DHT22;11286;45.596;5.284;2023-03-29T03:22:46;12.40;99.90
22235;DHT22;11286;45.596;5.284;2023-03-29T03:25:18;12.40;99.90
22235;DHT22;11286;45.596;5.284;2023-03-29T03:27:45;12.30;99.90
22235;DHT22;11286;45.596;5.284;2023-03-29T03:30:11;12.30;99.90
22235;DHT22;11286;45.596;5.284;2023-03-29T03:32:37;12.20;99.90
22235;DHT22;11286;45.596;5.284;2023-03-29T03:35:04;12.20;99.90
22235;DHT22;11286;45.596;5.284;2023-03-29T03:37:30;12.20;99.90
22235;DHT22;11286;45.596;5.284;2023-03-29T03:39:56;12.20;99.90
22235;DHT22;11286;45.596;5.284;2023-03-29T03:42:22;12.20;99.90
22235;DHT22;11286;45.596;5.284;2023-03-29T03:44:48;12.20;99.90
22235;DHT22;11286;45.596;5.284;2023-03-29T03:47:14;12.20;99.90
22235;DHT22;11286;45.596;5.284;2023-03-29T03:49:40;12.20;99.90
22235;DHT22;11286;45.596;5.284;2023-03-29T03:52:06;12.30;99.90
22235;DHT22;11286;45.596;5.284;2023-03-29T03:54:32;12.20;99.90
22235;DHT22;11286;45.596;5.284;2023-03-29T03:56:58;12.20;99.90
22235;DHT22;11286;45.596;5.284;2023-03-29T03:59:24;12.20;99.90
22235;DHT22;11286;45.596;5.284;2023-03-29T04:01:50;12.30;99.90
22235;DHT22;11286;45.596;5.284;2023-03-29T04:04:15;12.30;99.90
22235;DHT22;11286;45.596;5.284;2023-03-29T04:06:41;12.30;99.90
22235;DHT22;11286;45.596;5.284;2023-03-29T04:09:08;12.30;99.90
22235;DHT22;11286;45.596;5.284;2023-03-29T04:11:34;12.20;99.90
22235;DHT22;11286;45.596;5.284;2023-03-29T04:14:01;12.00;99.90
22235;DHT22;11286;45.596;5.284;2023-03-29T04:16:27;12.00;99.90
22235;DHT22;11286;45.596;5.284;2023-03-29T04:18:53;11.90;99.90
22235;DHT22;11286;45.596;5.284;2023-03-29T04:21:19;11.90;99.90
22235;DHT22;11286;45.596;5.284;2023-03-29T04:23:45;12.00;99.90
22235;DHT22;11286;45.596;5.284;2023-03-29T04:26:12;12.00;99.90
22235;DHT22;11286;45.596;5.284;2023-03-29T04:28:39;12.00;99.90
22235;DHT22;11286;45.596;5.284;2023-03-29T04:31:12;11.90;99.90
22235;DHT22;11286;45.596;5.284;2023-03-29T04:33:37;12.00;99.90
22235;DHT22;11286;45.596;5.284;2023-03-29T04:36:04;11.90;99.90
22235;DHT22;11286;45.596;5.284;2023-03-29T04:38:30;11.90;99.90
22235;DHT22;11286;45.596;5.284;2023-03-29T04:40:56;11.90;99.90
22235;DHT22;11286;45.596;5.284;2023-03-29T04:43:22;11.90;99.90
22235;DHT22;11286;45.596;5.284;2023-03-29T04:45:48;11.90;99.90
22235;DHT22;11286;45.596;5.284;2023-03-29T04:48:14;11.90;99.90
22235;DHT22;11286;45.596;5.284;2023-03-29T04:50:44;12.00;99.90
22235;DHT22;11286;45.596;5.284;2023-03-29T04:53:10;12.00;99.90
22235;DHT22;11286;45.596;5.284;2023-03-29T04:55:35;12.10;99.90
22235;DHT22;11286;45.596;5.284;2023-03-29T04:58:01;12.10;99.90
22235;DHT22;11286;45.596;5.284;2023-03-29T05:00:27;12.00;99.90
22235;DHT22;11286;45.596;5.284;2023-03-29T05:02:53;12.10;99.90
22235;DHT22;11286;45.596;5.284;2023-03-29T05:05:19;12.00;99.90
22235;DHT22;11286;45.596;5.284;2023-03-29T05:07:45;12.10;99.90
22235;DHT22;11286;45.596;5.284;2023-03-29T05:10:11;12.10;99.90
22235;DHT22;11286;45.596;5.284;2023-03-29T05:12:36;12.10;99.90
22235;DHT22;11286;45.596;5.284;2023-03-29T05:15:06;12.10;99.90
22235;DHT22;11286;45.596;5.284;2023-03-29T05:17:33;12.00;99.90
22235;DHT22;11286;45.596;5.284;2023-03-29T05:19:59;12.10;99.90
22235;DHT22;11286;45.596;5.284;2023-03-29T05:22:25;12.00;99.90
22235;DHT22;11286;45.596;5.284;2023-03-29T05:24:52;12.00;99.90
22235;DHT22;11286;45.596;5.284;2023-03-29T05:27:18;11.90;99.90
22235;DHT22;11286;45.596;5.284;2023-03-29T05:29:45;12.00;99.90
22235;DHT22;11286;45.596;5.284;2023-03-29T05:32:12;12.10;99.90
22235;DHT22;11286;45.596;5.284;2023-03-29T05:34:38;12.00;99.90
22235;DHT22;11286;45.596;5.284;2023-03-29T05:37:03;12.00;99.90
22235;DHT22;11286;45.596;5.284;2023-03-29T05:39:30;12.00;99.90
22235;DHT22;11286;45.596;5.284;2023-03-29T05:41:58;12.00;99.90
22235;DHT22;11286;45.596;5.284;2023-03-29T05:44:24;12.10;99.90
22235;DHT22;11286;45.596;5.284;2023-03-29T05:46:50;12.10;99.90
22235;DHT22;11286;45.596;5.284;2023-03-29T05:49:16;12.20;99.90
22235;DHT22;11286;45.596;5.284;2023-03-29T05:51:41;12.10;99.90
22235;DHT22;11286;45.596;5.284;2023-03-29T05:54:10;12.10;99.90
22235;DHT22;11286;45.596;5.284;2023-03-29T05:56:36;12.20;99.90
22235;DHT22;11286;45.596;5.284;2023-03-29T05:59:02;12.20;99.90
22235;DHT22;11286;45.596;5.284;2023-03-29T06:01:29;12.20;99.90
22235;DHT22;11286;45.596;5.284;2023-03-29T06:03:55;12.10;99.90
22235;DHT22;11286;45.596;5.284;2023-03-29T06:06:22;12.10;99.90
22235;DHT22;11286;45.596;5.284;2023-03-29T06:08:47;12.20;99.90
22235;DHT22;11286;45.596;5.284;2023-03-29T06:11:13;12.20;99.90
22235;DHT22;11286;45.596;5.284;2023-03-29T06:13:39;12.30;99.90
22235;DHT22;11286;45.596;5.284;2023-03-29T06:16:06;12.20;99.90
22235;DHT22;11286;45.596;5.284;2023-03-29T06:18:33;12.30;99.90
22235;DHT22;11286;45.596;5.284;2023-03-29T06:20:59;12.30;99.90
22235;DHT22;11286;45.596;5.284;2023-03-29T06:23:27;12.30;99.90
22235;DHT22;11286;45.596;5.284;2023-03-29T06:25:53;12.40;99.90
22235;DHT22;11286;45.596;5.284;2023-03-29T06:28:20;12.40;99.90
22235;DHT22;11286;45.596;5.284;2023-03-29T06:30:47;12.40;99.90
22235;DHT22;11286;45.596;5.284;2023-03-29T06:33:13;12.40;99.90
22235;DHT22;11286;45.596;5.284;2023-03-29T06:35:44;12.50;99.90
22235;DHT22;11286;45.596;5.284;2023-03-29T06:38:10;12.70;99.90
22235;DHT22;11286;45.596;5.284;2023-03-29T06:40:36;12.80;99.90
22235;DHT22;11286;45.596;5.284;2023-03-29T06:43:03;12.90;99.90
22235;DHT22;11286;45.596;5.284;2023-03-29T06:45:37;12.90;99.90
22235;DHT22;11286;45.596;5.284;2023-03-29T06:48:04;12.90;99.90
22235;DHT22;11286;45.596;5.284;2023-03-29T06:50:30;13.00;99.90
22235;DHT22;11286;45.596;5.284;2023-03-29T06:52:56;13.10;99.90
22235;DHT22;11286;45.596;5.284;2023-03-29T06:55:23;13.20;99.90
22235;DHT22;11286;45.596;5.284;2023-03-29T06:57:49;13.40;99.90
22235;DHT22;11286;45.596;5.284;2023-03-29T07:00:15;13.40;99.90
22235;DHT22;11286;45.596;5.284;2023-03-29T07:02:44;13.30;99.90
22235;DHT22;11286;45.596;5.284;2023-03-29T07:05:10;13.40;99.90
22235;DHT22;11286;45.596;5.284;2023-03-29T07:07:41;13.40;99.90
22235;DHT22;11286;45.596;5.284;2023-03-29T07:10:32;13.40;99.90
22235;DHT22;11286;45.596;5.284;2023-03-29T07:13:00;13.40;99.90
22235;DHT22;11286;45.596;5.284;2023-03-29T07:15:26;13.60;99.90
22235;DHT22;11286;45.596;5.284;2023-03-29T07:17:53;13.50;99.90
22235;DHT22;11286;45.596;5.284;2023-03-29T07:20:18;13.60;99.90
22235;DHT22;11286;45.596;5.284;2023-03-29T07:22:46;13.70;99.90
22235;DHT22;11286;45.596;5.284;2023-03-29T07:25:12;13.70;99.90
22235;DHT22;11286;45.596;5.284;2023-03-29T07:27:40;13.70;99.90
22235;DHT22;11286;45.596;5.284;2023-03-29T07:30:08;13.70;99.90
22235;DHT22;11286;45.596;5.284;2023-03-29T07:32:40;13.50;99.90
22235;DHT22;11286;45.596;5.284;2023-03-29T07:35:07;13.60;99.90
22235;DHT22;11286;45.596;5.284;2023-03-29T07:37:34;13.60;99.90
22235;DHT22;11286;45.596;5.284;2023-03-29T07:40:05;13.70;99.90
22235;DHT22;11286;45.596;5.284;2023-03-29T07:42:52;13.80;99.90
22235;DHT22;11286;45.596;5.284;2023-03-29T07:45:19;14.10;99.90
22235;DHT22;11286;45.596;5.284;2023-03-29T07:47:48;14.30;99.90
22235;DHT22;11286;45.596;5.284;2023-03-29T07:50:15;14.10;99.90
22235;DHT22;11286;45.596;5.284;2023-03-29T07:52:41;14.30;99.90
22235;DHT22;11286;45.596;5.284;2023-03-29T07:55:09;14.40;99.90
22235;DHT22;11286;45.596;5.284;2023-03-29T07:57:36;14.60;99.90
22235;DHT22;11286;45.596;5.284;2023-03-29T08:00:03;14.80;99.90
22235;DHT22;11286;45.596;5.284;2023-03-29T08:02:44;14.90;99.90
22235;DHT22;11286;45.596;5.284;2023-03-29T08:05:11;14.90;99.90
22235;DHT22;11286;45.596;5.284;2023-03-29T08:07:38;15.00;99.90
22235;DHT22;11286;45.596;5.284;2023-03-29T08:10:06;15.10;99.90
22235;DHT22;11286;45.596;5.284;2023-03-29T08:12:33;15.30;99.90
22235;DHT22;11286;45.596;5.284;2023-03-29T08:14:59;15.30;99.90
22235;DHT22;11286;45.596;5.284;2023-03-29T08:17:24;15.40;99.90
22235;DHT22;11286;45.596;5.284;2023-03-29T08:19:50;15.30;99.90
22235;DHT22;11286;45.596;5.284;2023-03-29T08:22:16;15.60;99.90
22235;DHT22;11286;45.596;5.284;2023-03-29T08:24:42;15.60;99.90
22235;DHT22;11286;45.596;5.284;2023-03-29T08:27:08;15.70;99.90
22235;DHT22;11286;45.596;5.284;2023-03-29T08:29:33;15.80;99.90
22235;DHT22;11286;45.596;5.284;2023-03-29T08:31:59;15.90;99.90
22235;DHT22;11286;45.596;5.284;2023-03-29T08:34:24;16.10;99.90
22235;DHT22;11286;45.596;5.284;2023-03-29T08:36:50;16.40;99.90
22235;DHT22;11286;45.596;5.284;2023-03-29T08:39:17;16.10;99.90
22235;DHT22;11286;45.596;5.284;2023-03-29T08:44:16;15.80;99.90
22235;DHT22;11286;45.596;5.284;2023-03-29T08:49:29;15.80;99.90
22235;DHT22;11286;45.596;5.284;2023-03-29T08:51:58;15.90;99.90
22235;DHT22;11286;45.596;5.284;2023-03-29T08:54:28;15.80;99.90
22235;DHT22;11286;45.596;5.284;2023-03-29T09:00:00;16.30;99.90
22235;DHT22;11286;45.596;5.284;2023-03-29T09:02:29;16.70;99.90
22235;DHT22;11286;45.596;5.284;2023-03-29T09:04:59;17.00;99.90
22235;DHT22;11286;45.596;5.284;2023-03-29T09:07:26;17.20;99.90
22235;DHT22;11286;45.596;5.284;2023-03-29T09:09:52;17.30;99.90
22235;DHT22;11286;45.596;5.284;2023-03-29T09:12:21;17.20;99.90
22235;DHT22;11286;45.596;5.284;2023-03-29T09:14:55;17.00;99.90
22235;DHT22;11286;45.596;5.284;2023-03-29T09:33:23;16.10;99.90
22235;DHT22;11286;45.596;5.284;2023-03-29T09:35:56;15.90;99.90
22235;DHT22;11286;45.596;5.284;2023-03-29T09:38:23;15.90;99.90
22235;DHT22;11286;45.596;5.284;2023-03-29T09:40:56;15.80;99.90
22235;DHT22;11286;45.596;5.284;2023-03-29T09:43:33;15.80;99.90
22235;DHT22;11286;45.596;5.284;2023-03-29T09:46:03;15.80;99.90
22235;DHT22;11286;45.596;5.284;2023-03-29T09:48:35;15.90;99.90
22235;DHT22;11286;45.596;5.284;2023-03-29T09:51:04;16.10;99.90
22235;DHT22;11286;45.596;5.284;2023-03-29T09:53:31;16.20;99.90
22235;DHT22;11286;45.596;5.284;2023-03-29T09:55:58;16.10;99.90
22235;DHT22;11286;45.596;5.284;2023-03-29T09:58:26;16.30;99.90
22235;DHT22;11286;45.596;5.284;2023-03-29T10:00:56;16.90;99.90
22235;DHT22;11286;45.596;5.284;2023-03-29T10:03:27;18.10;99.90
22235;DHT22;11286;45.596;5.284;2023-03-29T10:05:56;19.00;99.90
22235;DHT22;11286;45.596;5.284;2023-03-29T10:08:26;19.90;99.90
22235;DHT22;11286;45.596;5.284;2023-03-29T10:10:53;19.40;99.90
22235;DHT22;11286;45.596;5.284;2023-03-29T10:13:30;20.40;99.90
22235;DHT22;11286;45.596;5.284;2023-03-29T10:16:03;19.70;99.90
22235;DHT22;11286;45.596;5.284;2023-03-29T10:18:30;20.40;99.90
22235;DHT22;11286;45.596;5.284;2023-03-29T10:21:01;21.50;99.90
22235;DHT22;11286;45.596;5.284;2023-03-29T10:23:32;21.10;99.90
22235;DHT22;11286;45.596;5.284;2023-03-29T10:25:59;20.20;99.90
22235;DHT22;11286;45.596;5.284;2023-03-29T10:28:26;19.40;99.90
22235;DHT22;11286;45.596;5.284;2023-03-29T10:30:54;18.90;99.90
22235;DHT22;11286;45.596;5.284;2023-03-29T10:33:22;18.70;99.90
22235;DHT22;11286;45.596;5.284;2023-03-29T10:35:51;20.10;99.90
22235;DHT22;11286;45.596;5.284;2023-03-29T10:38:22;20.20;99.90
22235;DHT22;11286;45.596;5.284;2023-03-29T10:40:50;20.90;99.90
22235;DHT22;11286;45.596;5.284;2023-03-29T10:43:26;22.30;99.90
22235;DHT22;11286;45.596;5.284;2023-03-29T10:45:56;21.50;99.90
22235;DHT22;11286;45.596;5.284;2023-03-29T10:48:30;21.00;99.90
22235;DHT22;11286;45.596;5.284;2023-03-29T10:51:00;19.80;99.90
22235;DHT22;11286;45.596;5.284;2023-03-29T10:53:31;19.40;99.90
22235;DHT22;11286;45.596;5.284;2023-03-29T11:01:14;22.30;99.90
22235;DHT22;11286;45.596;5.284;2023-03-29T11:07:08;25.10;99.90
22235;DHT22;11286;45.596;5.284;2023-03-29T11:15:09;25.80;99.90
22235;DHT22;11286;45.596;5.284;2023-03-29T11:23:06;26.40;99.90
22235;DHT22;11286;45.596;5.284;2023-03-29T11:26:03;26.80;99.90
22235;DHT22;11286;45.596;5.284;2023-03-29T11:42:00;28.00;99.90
22235;DHT22;11286;45.596;5.284;2023-03-29T11:44:33;28.40;99.90
22235;DHT22;11286;45.596;5.284;2023-03-29T11:47:19;26.80;99.90
22235;DHT22;11286;45.596;5.284;2023-03-29T11:49:51;27.20;99.90
22235;DHT22;11286;45.596;5.284;2023-03-29T11:52:24;25.30;99.90
22235;DHT22;11286;45.596;5.284;2023-03-29T12:05:08;30.30;99.90
22235;DHT22;11286;45.596;5.284;2023-03-29T12:07:38;29.80;99.90
22235;DHT22;11286;45.596;5.284;2023-03-29T12:15:30;30.40;99.90
22235;DHT22;11286;45.596;5.284;2023-03-29T12:18:04;30.20;99.90
22235;DHT22;11286;45.596;5.284;2023-03-29T12:20:37;29.40;99.90
22235;DHT22;11286;45.596;5.284;2023-03-29T12:23:06;28.80;99.90
22235;DHT22;11286;45.596;5.284;2023-03-29T12:25:43;28.50;99.90
22235;DHT22;11286;45.596;5.284;2023-03-29T12:39:18;25.80;99.90
22235;DHT22;11286;45.596;5.284;2023-03-29T12:41:45;27.30;99.90
22235;DHT22;11286;45.596;5.284;2023-03-29T12:44:16;26.20;99.90
22235;DHT22;11286;45.596;5.284;2023-03-29T12:46:44;25.00;99.90
22235;DHT22;11286;45.596;5.284;2023-03-29T12:49:20;24.60;99.90
22235;DHT22;11286;45.596;5.284;2023-03-29T12:51:48;24.50;99.90
22235;DHT22;11286;45.596;5.284;2023-03-29T12:54:20;27.30;99.90
22235;DHT22;11286;45.596;5.284;2023-03-29T12:56:55;28.90;99.90
22235;DHT22;11286;45.596;5.284;2023-03-29T13:09:58;28.10;99.90
22235;DHT22;11286;45.596;5.284;2023-03-29T13:15:22;26.60;99.90
22235;DHT22;11286;45.596;5.284;2023-03-29T13:18:13;27.30;99.90
22235;DHT22;11286;45.596;5.284;2023-03-29T13:23:40;27.90;99.90
22235;DHT22;11286;45.596;5.284;2023-03-29T13:29:20;27.90;99.90
22235;DHT22;11286;45.596;5.284;2023-03-29T13:32:23;27.10;99.90
22235;DHT22;11286;45.596;5.284;2023-03-29T13:34:55;26.50;99.90
22235;DHT22;11286;45.596;5.284;2023-03-29T13:39:57;25.30;99.90
22235;DHT22;11286;45.596;5.284;2023-03-29T13:45:35;25.10;99.90
22235;DHT22;11286;45.596;5.284;2023-03-29T13:48:18;24.80;99.90
22235;DHT22;11286;45.596;5.284;2023-03-29T13:50:55;25.30;99.90
22235;DHT22;11286;45.596;5.284;2023-03-29T13:53:28;26.60;99.90
22235;DHT22;11286;45.596;5.284;2023-03-29T13:55:56;27.00;99.90
22235;DHT22;11286;45.596;5.284;2023-03-29T14:01:49;27.20;99.90
22235;DHT22;11286;45.596;5.284;2023-03-29T14:04:24;27.00;99.90
22235;DHT22;11286;45.596;5.284;2023-03-29T14:06:53;26.80;99.90
22235;DHT22;11286;45.596;5.284;2023-03-29T14:09:24;27.20;99.90
22235;DHT22;11286;45.596;5.284;2023-03-29T14:11:52;27.10;99.90
22235;DHT22;11286;45.596;5.284;2023-03-29T14:14:23;27.70;99.90
22235;DHT22;11286;45.596;5.284;2023-03-29T14:16:50;27.90;99.90
22235;DHT22;11286;45.596;5.284;2023-03-29T14:19:28;28.00;99.90
22235;DHT22;11286;45.596;5.284;2023-03-29T14:21:54;28.60;99.90
22235;DHT22;11286;45.596;5.284;2023-03-29T14:24:25;28.20;99.90
22235;DHT22;11286;45.596;5.284;2023-03-29T14:26:52;27.50;99.90
22235;DHT22;11286;45.596;5.284;2023-03-29T14:29:18;26.90;99.90
22235;DHT22;11286;45.596;5.284;2023-03-29T14:31:44;26.50;99.90
22235;DHT22;11286;45.596;5.284;2023-03-29T14:34:19;26.20;99.90
22235;DHT22;11286;45.596;5.284;2023-03-29T14:36:47;26.30;99.90
22235;DHT22;11286;45.596;5.284;2023-03-29T14:39:21;26.20;99.90
22235;DHT22;11286;45.596;5.284;2023-03-29T14:41:52;25.70;99.90
22235;DHT22;11286;45.596;5.284;2023-03-29T14:44:23;25.30;99.90
22235;DHT22;11286;45.596;5.284;2023-03-29T14:46:50;25.20;99.90
22235;DHT22;11286;45.596;5.284;2023-03-29T14:49:17;25.10;99.90
22235;DHT22;11286;45.596;5.284;2023-03-29T14:51:44;24.90;99.90
22235;DHT22;11286;45.596;5.284;2023-03-29T14:54:40;24.70;99.90
22235;DHT22;11286;45.596;5.284;2023-03-29T14:57:15;24.50;99.90
22235;DHT22;11286;45.596;5.284;2023-03-29T14:59:51;24.40;99.90
22235;DHT22;11286;45.596;5.284;2023-03-29T15:02:32;24.10;99.90
22235;DHT22;11286;45.596;5.284;2023-03-29T15:05:03;23.80;99.90
22235;DHT22;11286;45.596;5.284;2023-03-29T15:07:31;23.90;99.90
22235;DHT22;11286;45.596;5.284;2023-03-29T15:09:58;24.30;99.90
22235;DHT22;11286;45.596;5.284;2023-03-29T15:12:27;24.30;99.90
22235;DHT22;11286;45.596;5.284;2023-03-29T15:14:54;24.40;99.90
22235;DHT22;11286;45.596;5.284;2023-03-29T15:17:32;24.30;99.90
22235;DHT22;11286;45.596;5.284;2023-03-29T15:20:02;24.20;99.90
22235;DHT22;11286;45.596;5.284;2023-03-29T15:22:39;24.20;99.90
22235;DHT22;11286;45.596;5.284;2023-03-29T15:25:17;24.30;99.90
22235;DHT22;11286;45.596;5.284;2023-03-29T15:27:43;24.80;99.90
22235;DHT22;11286;45.596;5.284;2023-03-29T15:30:13;25.30;99.90
22235;DHT22;11286;45.596;5.284;2023-03-29T15:32:39;24.90;99.90
22235;DHT22;11286;45.596;5.284;2023-03-29T15:35:19;24.80;99.90
22235;DHT22;11286;45.596;5.284;2023-03-29T15:37:45;24.50;99.90
22235;DHT22;11286;45.596;5.284;2023-03-29T15:40:24;24.50;99.90
22235;DHT22;11286;45.596;5.284;2023-03-29T15:42:53;24.10;99.90
22235;DHT22;11286;45.596;5.284;2023-03-29T15:45:20;23.70;99.90
22235;DHT22;11286;45.596;5.284;2023-03-29T15:47:46;23.80;99.90
22235;DHT22;11286;45.596;5.284;2023-03-29T15:50:12;23.90;99.90
22235;DHT22;11286;45.596;5.284;2023-03-29T15:52:40;23.90;99.90
22235;DHT22;11286;45.596;5.284;2023-03-29T15:55:06;23.80;99.90
22235;DHT22;11286;45.596;5.284;2023-03-29T15:57:32;23.80;99.90
22235;DHT22;11286;45.596;5.284;2023-03-29T15:59:58;23.80;99.90
22235;DHT22;11286;45.596;5.284;2023-03-29T16:02:24;24.00;99.90
22235;DHT22;11286;45.596;5.284;2023-03-29T16:04:50;23.80;99.90
22235;DHT22;11286;45.596;5.284;2023-03-29T16:07:17;23.70;99.90
22235;DHT22;11286;45.596;5.284;2023-03-29T16:09:44;23.70;99.90
22235;DHT22;11286;45.596;5.284;2023-03-29T16:12:11;23.70;99.90
22235;DHT22;11286;45.596;5.284;2023-03-29T16:14:37;23.70;99.90
22235;DHT22;11286;45.596;5.284;2023-03-29T16:17:03;23.60;99.90
22235;DHT22;11286;45.596;5.284;2023-03-29T16:19:30;23.30;99.90
22235;DHT22;11286;45.596;5.284;2023-03-29T16:21:57;23.20;99.90
22235;DHT22;11286;45.596;5.284;2023-03-29T16:24:25;23.20;99.90
22235;DHT22;11286;45.596;5.284;2023-03-29T16:26:52;23.30;99.90
22235;DHT22;11286;45.596;5.284;2023-03-29T16:29:18;23.30;99.90
22235;DHT22;11286;45.596;5.284;2023-03-29T16:31:45;23.10;99.90
22235;DHT22;11286;45.596;5.284;2023-03-29T16:34:12;23.10;99.90
22235;DHT22;11286;45.596;5.284;2023-03-29T16:36:39;23.00;99.90
22235;DHT22;11286;45.596;5.284;2023-03-29T16:39:05;22.80;99.90
22235;DHT22;11286;45.596;5.284;2023-03-29T16:41:31;22.80;99.90
22235;DHT22;11286;45.596;5.284;2023-03-29T16:43:58;22.60;99.90
22235;DHT22;11286;45.596;5.284;2023-03-29T16:46:23;22.50;99.90
22235;DHT22;11286;45.596;5.284;2023-03-29T16:48:49;22.30;99.90
22235;DHT22;11286;45.596;5.284;2023-03-29T16:51:16;22.30;99.90
22235;DHT22;11286;45.596;5.284;2023-03-29T16:53:42;22.20;99.90
22235;DHT22;11286;45.596;5.284;2023-03-29T16:56:08;22.10;99.90
22235;DHT22;11286;45.596;5.284;2023-03-29T16:58:37;22.00;99.90
22235;DHT22;11286;45.596;5.284;2023-03-29T17:01:07;21.90;99.90
22235;DHT22;11286;45.596;5.284;2023-03-29T17:03:35;21.80;99.90
22235;DHT22;11286;45.596;5.284;2023-03-29T17:06:02;21.70;99.90
22235;DHT22;11286;45.596;5.284;2023-03-29T17:08:27;21.70;99.90
22235;DHT22;11286;45.596;5.284;2023-03-29T17:10:53;21.70;99.90
22235;DHT22;11286;45.596;5.284;2023-03-29T17:13:20;21.60;99.90
22235;DHT22;11286;45.596;5.284;2023-03-29T17:15:48;21.60;99.90
22235;DHT22;11286;45.596;5.284;2023-03-29T17:18:17;21.40;99.90
22235;DHT22;11286;45.596;5.284;2023-03-29T17:20:42;21.30;99.90
22235;DHT22;11286;45.596;5.284;2023-03-29T17:23:08;21.20;99.90
22235;DHT22;11286;45.596;5.284;2023-03-29T17:25:33;21.10;99.90
22235;DHT22;11286;45.596;5.284;2023-03-29T17:27:59;21.00;99.90
22235;DHT22;11286;45.596;5.284;2023-03-29T17:30:25;20.90;99.90
22235;DHT22;11286;45.596;5.284;2023-03-29T17:32:50;20.80;99.90
22235;DHT22;11286;45.596;5.284;2023-03-29T17:35:16;20.70;99.90
22235;DHT22;11286;45.596;5.284;2023-03-29T17:37:42;20.60;99.90
22235;DHT22;11286;45.596;5.284;2023-03-29T17:40:08;20.40;99.90
22235;DHT22;11286;45.596;5.284;2023-03-29T17:42:39;20.40;99.90
22235;DHT22;11286;45.596;5.284;2023-03-29T17:45:06;20.30;99.90
22235;DHT22;11286;45.596;5.284;2023-03-29T17:47:32;20.20;99.90
22235;DHT22;11286;45.596;5.284;2023-03-29T17:49:57;20.10;99.90
22235;DHT22;11286;45.596;5.284;2023-03-29T17:52:23;20.00;99.90